Time,TemperatureF,DewpointF,PressureIn,WindDirection,WindDirectionDegrees,WindSpeedMPH,WindSpeedGustMPH,Humidity,HourlyPrecipIn,Conditions,Clouds,dailyrainin,SoftwareType,DateUTC
2013-10-24 00:05:00,47.2,40.0,29.77,NW,306,14.0,-999.0,76,-99.99,,,0.00,weatherlink.com 1.10,2013-10-24 04:05:00,
2013-10-24 00:20:00,47.3,40.0,29.77,WNW,303,15.0,-999.0,75,-99.99,,,0.00,weatherlink.com 1.10,2013-10-24 04:20:00,
2013-10-24 00:35:00,47.3,40.0,29.78,NW,309,15.0,-999.0,75,-99.99,,,0.00,weatherlink.com 1.10,2013-10-24 04:35:00,
2013-10-24 00:50:00,47.0,40.0,29.78,NW,314,12.0,-999.0,76,-99.99,,,0.00,weatherlink.com 1.10,2013-10-24 04:50:00,
2013-10-24 01:05:00,46.9,40.0,29.79,WNW,286,16.0,-999.0,77,-99.99,,,0.00,weatherlink.com 1.10,2013-10-24 05:05:00,
2013-10-24 01:20:00,47.2,40.0,29.79,NW,319,13.0,-999.0,77,-99.99,,,0.00,weatherlink.com 1.10,2013-10-24 05:20:00,
2013-10-24 01:35:00,47.3,40.0,29.79,WNW,297,17.0,-999.0,75,-99.99,,,0.00,weatherlink.com 1.10,2013-10-24 05:35:00,
2013-10-24 01:50:00,47.6,40.0,29.80,NW,309,17.0,-999.0,74,-99.99,,,0.00,weatherlink.com 1.10,2013-10-24 05:50:00,
2013-10-24 02:06:00,47.4,40.0,29.81,NW,304,18.0,-999.0,74,-99.99,,,0.00,weatherlink.com 1.10,2013-10-24 06:06:00,
2013-10-24 02:21:00,47.0,39.0,29.81,NW,314,14.0,-999.0,74,-99.99,,,0.00,weatherlink.com 1.10,2013-10-24 06:21:00,
2013-10-24 02:36:00,46.8,39.0,29.82,NW,315,15.0,-999.0,74,-99.99,,,0.00,weatherlink.com 1.10,2013-10-24 06:36:00,
2013-10-24 02:51:00,46.6,39.0,29.82,NW,309,15.0,-999.0,74,-99.99,,,0.00,weatherlink.com 1.10,2013-10-24 06:51:00,
2013-10-24 03:06:00,46.5,39.0,29.82,NW,307,22.0,-999.0,74,-99.99,,,0.00,weatherlink.com 1.10,2013-10-24 07:06:00,
2013-10-24 03:21:00,46.3,38.0,29.82,NW,315,16.0,-999.0,73,-99.99,,,0.00,weatherlink.com 1.10,2013-10-24 07:21:00,
2013-10-24 03:36:00,46.1,39.0,29.82,NW,305,11.0,-999.0,75,-99.99,,,0.00,weatherlink.com 1.10,2013-10-24 07:36:00,
2013-10-24 03:51:00,46.1,39.0,29.82,NW,305,14.0,-999.0,75,-99.99,,,0.00,weatherlink.com 1.10,2013-10-24 07:51:00,
2013-10-24 04:06:00,46.0,39.0,29.82,WNW,300,14.0,-999.0,75,-99.99,,,0.00,weatherlink.com 1.10,2013-10-24 08:06:00,
2013-10-24 04:21:00,45.8,39.0,29.82,WNW,298,14.0,-999.0,76,-99.99,,,0.00,weatherlink.com 1.10,2013-10-24 08:21:00,
2013-10-24 04:36:00,45.4,39.0,29.83,NW,316,9.0,-999.0,77,-99.99,,,0.00,weatherlink.com 1.10,2013-10-24 08:36:00,
2013-10-24 04:52:00,45.2,38.0,29.84,NW,319,14.0,-999.0,77,-99.99,,,0.00,weatherlink.com 1.10,2013-10-24 08:52:00,
2013-10-24 05:07:00,45.2,38.0,29.85,NW,304,12.0,-999.0,77,-99.99,,,0.00,weatherlink.com 1.10,2013-10-24 09:07:00,
2013-10-24 05:22:00,45.2,39.0,29.85,NW,319,10.0,-999.0,78,-99.99,,,0.00,weatherlink.com 1.10,2013-10-24 09:22:00,
2013-10-24 05:37:00,45.2,38.0,29.86,NW,314,12.0,-999.0,77,-99.99,,,0.00,weatherlink.com 1.10,2013-10-24 09:37:00,
2013-10-24 05:52:00,45.4,38.0,29.87,WNW,299,11.0,-999.0,75,-99.99,,,0.00,weatherlink.com 1.10,2013-10-24 09:52:00,
2013-10-24 06:07:00,45.2,38.0,29.88,NW,305,11.0,-999.0,75,-99.99,,,0.00,weatherlink.com 1.10,2013-10-24 10:07:00,
2013-10-24 06:22:00,45.0,38.0,29.89,NW,308,13.0,-999.0,76,-99.99,,,0.00,weatherlink.com 1.10,2013-10-24 10:22:00,
2013-10-24 06:37:00,44.9,38.0,29.89,NW,318,9.0,-999.0,77,-99.99,,,0.00,weatherlink.com 1.10,2013-10-24 10:37:00,
2013-10-24 06:52:00,45.0,38.0,29.90,WNW,303,13.0,-999.0,75,-99.99,,,0.00,weatherlink.com 1.10,2013-10-24 10:52:00,
2013-10-24 07:07:00,44.9,38.0,29.90,NW,307,16.0,-999.0,76,-99.99,,,0.00,weatherlink.com 1.10,2013-10-24 11:07:00,
2013-10-24 07:22:00,44.9,37.0,29.90,WNW,295,10.0,-999.0,75,-99.99,,,0.00,weatherlink.com 1.10,2013-10-24 11:22:00,
2013-10-24 07:37:00,44.9,38.0,29.91,NW,309,13.0,-999.0,76,-99.99,,,0.00,weatherlink.com 1.10,2013-10-24 11:37:00,
2013-10-24 07:53:00,45.1,38.0,29.91,WNW,303,9.0,-999.0,77,-99.99,,,0.00,weatherlink.com 1.10,2013-10-24 11:53:00,
2013-10-24 08:08:00,45.3,39.0,29.92,NW,314,11.0,-999.0,78,-99.99,,,0.00,weatherlink.com 1.10,2013-10-24 12:08:00,
2013-10-24 08:23:00,45.7,39.0,29.93,WNW,297,14.0,-999.0,78,-99.99,,,0.00,weatherlink.com 1.10,2013-10-24 12:23:00,
2013-10-24 08:38:00,46.4,39.0,29.94,WNW,303,13.0,-999.0,75,-99.99,,,0.00,weatherlink.com 1.10,2013-10-24 12:38:00,
2013-10-24 08:53:00,46.9,38.0,29.94,WNW,295,16.0,-999.0,72,-99.99,,,0.00,weatherlink.com 1.10,2013-10-24 12:53:00,
2013-10-24 11:55:00,50.2,37.0,29.93,WNW,296,21.0,-999.0,62,-99.99,,,0.00,weatherlink.com 1.10,2013-10-24 15:55:00,
2013-10-24 12:10:00,50.8,38.0,29.93,WNW,295,9.0,-999.0,62,-99.99,,,0.00,weatherlink.com 1.10,2013-10-24 16:10:00,
2013-10-24 12:25:00,51.7,38.0,29.93,West,265,11.0,-999.0,59,-99.99,,,0.00,weatherlink.com 1.10,2013-10-24 16:25:00,
2013-10-24 12:40:00,52.1,37.0,29.92,WNW,303,12.0,-999.0,56,-99.99,,,0.00,weatherlink.com 1.10,2013-10-24 16:40:00,
2013-10-24 12:55:00,51.5,35.0,29.92,WNW,293,11.0,-999.0,54,-99.99,,,0.00,weatherlink.com 1.10,2013-10-24 16:55:00,
2013-10-24 13:10:00,52.1,36.0,29.91,WSW,252,9.0,-999.0,54,-99.99,,,0.00,weatherlink.com 1.10,2013-10-24 17:10:00,
2013-10-24 13:26:00,51.2,35.0,29.91,NW,307,12.0,-999.0,54,-99.99,,,0.00,weatherlink.com 1.10,2013-10-24 17:26:00,
2013-10-24 13:41:00,51.0,34.0,29.90,West,275,11.0,-999.0,53,-99.99,,,0.00,weatherlink.com 1.10,2013-10-24 17:41:00,
2013-10-24 13:56:00,51.3,35.0,29.90,West,274,13.0,-999.0,54,-99.99,,,0.00,weatherlink.com 1.10,2013-10-24 17:56:00,
2013-10-24 14:11:00,51.4,33.0,29.90,WNW,288,10.0,-999.0,50,-99.99,,,0.00,weatherlink.com 1.10,2013-10-24 18:11:00,
2013-10-24 14:26:00,51.7,33.0,29.90,West,271,20.0,-999.0,49,-99.99,,,0.00,weatherlink.com 1.10,2013-10-24 18:26:00,
2013-10-24 14:41:00,51.4,32.0,29.90,WNW,282,18.0,-999.0,48,-99.99,,,0.00,weatherlink.com 1.10,2013-10-24 18:41:00,
2013-10-24 14:56:00,51.5,32.0,29.90,West,275,12.0,-999.0,47,-99.99,,,0.00,weatherlink.com 1.10,2013-10-24 18:56:00,
2013-10-24 15:26:00,52.4,32.0,29.90,NW,310,23.0,-999.0,46,-99.99,,,0.00,weatherlink.com 1.10,2013-10-24 19:26:00,
2013-10-24 15:41:00,50.6,31.0,29.91,WNW,296,14.0,-999.0,48,-99.99,,,0.00,weatherlink.com 1.10,2013-10-24 19:41:00,
2013-10-24 15:56:00,50.7,32.0,29.91,WNW,288,17.0,-999.0,50,-99.99,,,0.00,weatherlink.com 1.10,2013-10-24 19:56:00,
2013-10-24 16:11:00,50.6,32.0,29.92,WNW,288,14.0,-999.0,50,-99.99,,,0.00,weatherlink.com 1.10,2013-10-24 20:11:00,
2013-10-24 16:26:00,50.4,33.0,29.92,WNW,298,19.0,-999.0,51,-99.99,,,0.00,weatherlink.com 1.10,2013-10-24 20:26:00,
2013-10-24 16:42:00,50.5,33.0,29.93,WNW,294,10.0,-999.0,51,-99.99,,,0.00,weatherlink.com 1.10,2013-10-24 20:42:00,
2013-10-24 16:57:00,51.0,33.0,29.93,WSW,246,11.0,-999.0,50,-99.99,,,0.00,weatherlink.com 1.10,2013-10-24 20:57:00,
2013-10-24 17:12:00,50.6,32.0,29.93,West,261,13.0,-999.0,50,-99.99,,,0.00,weatherlink.com 1.10,2013-10-24 21:12:00,
2013-10-24 17:27:00,49.9,32.0,29.93,West,277,18.0,-999.0,50,-99.99,,,0.00,weatherlink.com 1.10,2013-10-24 21:27:00,
2013-10-24 17:42:00,49.9,31.0,29.93,West,272,14.0,-999.0,49,-99.99,,,0.00,weatherlink.com 1.10,2013-10-24 21:42:00,
2013-10-24 17:57:00,49.6,31.0,29.94,WSW,252,17.0,-999.0,50,-99.99,,,0.00,weatherlink.com 1.10,2013-10-24 21:57:00,
2013-10-24 18:12:00,49.7,31.0,29.94,WNW,290,12.0,-999.0,49,-99.99,,,0.00,weatherlink.com 1.10,2013-10-24 22:12:00,
2013-10-24 18:27:00,49.4,33.0,29.95,WNW,284,10.0,-999.0,54,-99.99,,,0.00,weatherlink.com 1.10,2013-10-24 22:27:00,
2013-10-24 18:42:00,49.4,31.0,29.96,WNW,290,8.0,-999.0,50,-99.99,,,0.00,weatherlink.com 1.10,2013-10-24 22:42:00,
2013-10-24 18:57:00,49.2,31.0,29.97,West,281,20.0,-999.0,50,-99.99,,,0.00,weatherlink.com 1.10,2013-10-24 22:57:00,
2013-10-24 19:12:00,49.0,31.0,29.97,NW,309,14.0,-999.0,51,-99.99,,,0.00,weatherlink.com 1.10,2013-10-24 23:12:00,
2013-10-24 19:27:00,48.7,31.0,29.98,WNW,292,15.0,-999.0,51,-99.99,,,0.00,weatherlink.com 1.10,2013-10-24 23:27:00,
2013-10-24 19:43:00,48.4,31.0,29.98,NNW,331,10.0,-999.0,51,-99.99,,,0.00,weatherlink.com 1.10,2013-10-24 23:43:00,
2013-10-24 19:58:00,48.2,31.0,29.99,WNW,284,12.0,-999.0,52,-99.99,,,0.00,weatherlink.com 1.10,2013-10-24 23:58:00,
2013-10-24 20:13:00,48.0,32.0,29.99,West,267,8.0,-999.0,54,-99.99,,,0.00,weatherlink.com 1.10,2013-10-25 00:13:00,
2013-10-24 20:28:00,47.8,32.0,29.99,West,277,11.0,-999.0,54,-99.99,,,0.00,weatherlink.com 1.10,2013-10-25 00:28:00,
2013-10-24 20:43:00,47.8,32.0,29.99,WNW,288,9.0,-999.0,55,-99.99,,,0.00,weatherlink.com 1.10,2013-10-25 00:43:00,
2013-10-24 20:58:00,48.1,31.0,30.00,West,263,12.0,-999.0,53,-99.99,,,0.00,weatherlink.com 1.10,2013-10-25 00:58:00,
2013-10-24 21:13:00,47.7,32.0,30.00,WNW,283,8.0,-999.0,55,-99.99,,,0.00,weatherlink.com 1.10,2013-10-25 01:13:00,
2013-10-24 21:28:00,47.8,32.0,30.00,WNW,287,6.0,-999.0,54,-99.99,,,0.00,weatherlink.com 1.10,2013-10-25 01:28:00,
2013-10-24 21:43:00,47.8,32.0,30.01,WNW,286,10.0,-999.0,55,-99.99,,,0.00,weatherlink.com 1.10,2013-10-25 01:43:00,
2013-10-24 21:58:00,47.7,33.0,30.02,West,272,10.0,-999.0,57,-99.99,,,0.00,weatherlink.com 1.10,2013-10-25 01:58:00,
2013-10-24 22:13:00,47.5,32.0,30.02,West,279,13.0,-999.0,55,-99.99,,,0.00,weatherlink.com 1.10,2013-10-25 02:13:00,
2013-10-24 22:28:00,47.6,32.0,30.02,WNW,285,11.0,-999.0,56,-99.99,,,0.00,weatherlink.com 1.10,2013-10-25 02:28:00,
2013-10-24 22:44:00,47.5,32.0,30.02,West,275,14.0,-999.0,56,-99.99,,,0.00,weatherlink.com 1.10,2013-10-25 02:44:00,
2013-10-24 22:59:00,47.8,33.0,30.02,West,273,9.0,-999.0,58,-99.99,,,0.00,weatherlink.com 1.10,2013-10-25 02:59:00,
2013-10-24 23:14:00,47.9,32.0,30.02,WNW,290,16.0,-999.0,55,-99.99,,,0.00,weatherlink.com 1.10,2013-10-25 03:14:00,
2013-10-24 23:29:00,47.8,33.0,30.02,WNW,285,10.0,-999.0,56,-99.99,,,0.00,weatherlink.com 1.10,2013-10-25 03:29:00,
2013-10-24 23:44:00,47.7,34.0,30.02,WNW,301,17.0,-999.0,60,-99.99,,,0.00,weatherlink.com 1.10,2013-10-25 03:44:00,
2013-10-24 23:59:00,47.4,34.0,30.02,NW,304,16.0,-999.0,59,-99.99,,,0.00,weatherlink.com 1.10,2013-10-25 03:59:00,